createdAt,value
2018-05-02T00:00:38.263Z,4.20
2018-05-02T00:05:29.352Z,4.20
2018-05-02T00:10:21.104Z,4.30
2018-05-02T00:15:12.174Z,4.70
2018-05-02T00:20:03.208Z,4.43
2018-05-02T00:24:54.267Z,4.33
2018-05-02T00:29:45.287Z,4.50
2018-05-02T00:34:36.393Z,4.43
2018-05-02T00:39:28.180Z,4.53
2018-05-02T00:44:19.301Z,4.57
2018-05-02T00:49:16.202Z,4.63
2018-05-02T00:54:07.249Z,5.00
2018-05-02T00:58:59.019Z,4.57
2018-05-02T01:03:50.034Z,5.27
2018-05-02T01:08:41.129Z,4.63
2018-05-02T01:13:32.202Z,4.83
2018-05-02T01:18:23.275Z,5.10
2018-05-02T01:23:15.054Z,5.23
2018-05-02T01:28:06.105Z,5.47
2018-05-02T01:32:57.223Z,5.50
2018-05-02T01:37:48.248Z,5.60
2018-05-02T01:42:39.289Z,5.97
2018-05-02T01:47:30.373Z,5.37
2018-05-02T01:52:21.421Z,5.67
2018-05-02T01:57:12.465Z,5.67
2018-05-02T02:02:03.498Z,5.77
2018-05-02T02:06:54.592Z,5.33
2018-05-02T02:11:45.615Z,6.10
2018-05-02T02:16:36.665Z,5.30
2018-05-02T02:21:27.743Z,5.53
2018-05-02T02:26:18.766Z,5.77
2018-05-02T02:31:09.802Z,5.43
2018-05-02T02:36:00.837Z,5.97
2018-05-02T02:40:51.901Z,6.43
2018-05-02T02:45:43.744Z,6.03
2018-05-02T02:50:35.517Z,6.37
2018-05-02T02:55:26.561Z,6.30
2018-05-02T03:00:17.607Z,6.53
2018-05-02T03:05:08.644Z,6.70
2018-05-02T03:10:00.424Z,6.60
2018-05-02T03:14:51.477Z,6.80
2018-05-02T03:19:42.528Z,6.67
2018-05-02T03:24:33.576Z,7.47
2018-05-02T03:29:24.629Z,7.07
2018-05-02T03:34:15.700Z,7.37
2018-05-02T03:39:07.495Z,6.83
2018-05-02T03:43:58.524Z,7.37
2018-05-02T03:48:49.596Z,7.40
2018-05-02T03:53:41.429Z,7.27
2018-05-02T03:58:32.476Z,8.17
2018-05-02T04:03:42.377Z,7.77
2018-05-02T04:08:33.511Z,7.93
2018-05-02T04:13:24.625Z,7.50
2018-05-02T04:18:15.717Z,8.37
2018-05-02T04:23:07.484Z,8.53
2018-05-02T04:27:58.620Z,7.80
2018-05-02T04:32:49.689Z,8.03
2018-05-02T04:37:41.500Z,8.37
2018-05-02T04:42:32.590Z,9.63
2018-05-02T04:47:23.629Z,8.67
2018-05-02T04:52:14.688Z,8.47
2018-05-02T04:57:05.746Z,8.60
2018-05-02T05:01:56.875Z,8.97
2018-05-02T05:06:47.965Z,9.40
2018-05-02T05:11:39.036Z,8.63
2018-05-02T05:16:30.156Z,8.60
2018-05-02T05:21:21.187Z,8.33
2018-05-02T05:26:12.268Z,9.03
2018-05-02T05:31:04.038Z,8.10
2018-05-02T05:35:55.104Z,8.10
2018-05-02T05:40:46.124Z,8.40
2018-05-02T05:45:37.296Z,8.43
2018-05-02T05:50:29.061Z,7.20
2018-05-02T05:55:20.140Z,7.10
2018-05-02T06:00:11.932Z,7.70
2018-05-02T06:05:03.116Z,7.33
2018-05-02T06:09:54.072Z,7.23
2018-05-02T06:14:45.139Z,6.90
2018-05-02T06:19:36.220Z,6.30
2018-05-02T06:24:28.240Z,6.63
2018-05-02T06:29:20.087Z,6.37
2018-05-02T06:34:11.317Z,6.73
2018-05-02T06:39:05.333Z,6.83
2018-05-02T06:43:56.357Z,7.03
2018-05-02T06:48:47.389Z,6.47
2018-05-02T06:53:38.412Z,6.33
2018-05-02T06:58:29.426Z,6.10
2018-05-02T07:03:20.483Z,6.57
2018-05-02T07:08:11.541Z,6.33
2018-05-02T07:13:02.558Z,7.10
2018-05-02T07:17:54.369Z,5.83
2018-05-02T07:22:46.243Z,6.03
2018-05-02T07:27:38.017Z,6.10
2018-05-02T07:32:29.057Z,5.40
2018-05-02T07:37:20.149Z,5.63
2018-05-02T07:42:11.212Z,5.63
2018-05-02T07:47:02.280Z,5.67
2018-05-02T07:51:54.046Z,6.13
2018-05-02T07:56:45.111Z,6.83
2018-05-02T08:01:36.168Z,6.50
2018-05-02T08:06:27.974Z,6.67
2018-05-02T08:11:19.045Z,5.97
2018-05-02T08:16:10.080Z,6.70
2018-05-02T08:21:01.104Z,6.90
2018-05-02T08:25:52.177Z,6.63
2018-05-02T08:30:43.337Z,6.10
2018-05-02T08:35:34.369Z,6.33
2018-05-02T08:40:25.377Z,6.50
2018-05-02T08:45:17.186Z,6.47
2018-05-02T08:50:08.226Z,6.03
2018-05-02T08:54:59.999Z,6.10
2018-05-02T08:59:51.037Z,20.90
2018-05-02T09:04:42.089Z,6.13
2018-05-02T09:09:33.108Z,7.03
2018-05-02T09:14:24.165Z,5.27
2018-05-02T09:19:15.964Z,5.13
2018-05-02T09:24:07.009Z,5.60
2018-05-02T09:28:58.057Z,5.20
2018-05-02T09:33:49.845Z,5.20
2018-05-02T09:38:40.917Z,5.27
2018-05-02T09:43:32.702Z,5.00
2018-05-02T09:48:23.753Z,4.97
2018-05-02T09:53:14.815Z,5.13
2018-05-02T09:58:06.618Z,4.87
2018-05-02T10:02:57.657Z,4.90
2018-05-02T10:07:48.737Z,4.67
2018-05-02T10:12:39.856Z,3.97
2018-05-02T10:17:30.858Z,4.80
2018-05-02T10:22:21.903Z,3.80
2018-05-02T10:27:12.932Z,3.70
2018-05-02T10:32:04.843Z,4.60
2018-05-02T10:36:55.919Z,5.57
2018-05-02T10:41:47.045Z,6.83
2018-05-02T10:46:38.105Z,4.80
2018-05-02T10:51:29.162Z,4.90
2018-05-02T10:56:20.250Z,5.00
2018-05-02T11:01:11.300Z,5.50
2018-05-02T11:06:02.332Z,4.60
2018-05-02T11:10:53.377Z,4.67
2018-05-02T11:15:45.174Z,5.23
2018-05-02T11:20:36.325Z,5.07
2018-05-02T11:25:27.372Z,4.93
2018-05-02T11:30:19.180Z,5.17
2018-05-02T11:35:10.208Z,5.30
2018-05-02T11:40:01.253Z,4.57
2018-05-02T11:44:53.022Z,5.37
2018-05-02T11:49:44.044Z,4.60
2018-05-02T11:54:35.060Z,3.97
2018-05-02T11:59:26.125Z,3.77
2018-05-02T12:04:17.213Z,3.60
2018-05-02T12:09:08.297Z,3.00
2018-05-02T12:13:59.378Z,3.07
2018-05-02T12:18:50.408Z,3.87
2018-05-02T12:23:41.476Z,3.47
2018-05-02T12:28:33.256Z,4.20
2018-05-02T12:33:24.272Z,3.87
2018-05-02T12:38:15.396Z,4.20
2018-05-02T12:43:06.449Z,4.37
2018-05-02T12:47:57.558Z,4.00
2018-05-02T12:52:48.578Z,4.03
2018-05-02T12:57:39.601Z,4.40
2018-05-02T13:02:30.679Z,5.03
2018-05-02T13:07:21.720Z,4.57
2018-05-02T13:12:12.744Z,3.87
2018-05-02T13:17:04.510Z,3.70
2018-05-02T13:21:55.532Z,3.70
2018-05-02T13:26:46.581Z,3.13
2018-05-02T13:31:37.700Z,3.63
2018-05-02T13:36:28.732Z,3.63
2018-05-02T13:41:19.813Z,3.80
2018-05-02T13:46:10.872Z,3.87
2018-05-02T13:51:01.908Z,3.80
2018-05-02T13:55:52.940Z,4.23
2018-05-02T14:00:44.001Z,3.77
2018-05-02T14:05:35.796Z,3.17
2018-05-02T14:10:26.846Z,3.13
2018-05-02T14:15:17.910Z,2.80
2018-05-02T14:20:09.683Z,2.97
2018-05-02T14:25:00.700Z,2.63
2018-05-02T14:29:51.842Z,2.80
2018-05-02T14:34:42.878Z,2.77
2018-05-02T14:39:33.903Z,2.80
2018-05-02T14:44:24.932Z,2.40
2018-05-02T14:49:16.163Z,2.40
2018-05-02T14:54:07.244Z,2.90
2018-05-02T14:58:59.075Z,2.47
2018-05-02T15:03:50.867Z,2.53
2018-05-02T15:08:41.924Z,2.77
2018-05-02T15:13:33.003Z,2.87
2018-05-02T15:18:24.112Z,2.73
2018-05-02T15:23:15.881Z,2.93
2018-05-02T15:28:07.002Z,2.53
2018-05-02T15:32:58.764Z,2.47
2018-05-02T15:37:49.816Z,2.60
2018-05-02T15:42:40.849Z,2.70
2018-05-02T15:47:31.902Z,2.70
2018-05-02T15:52:22.919Z,2.90
2018-05-02T15:57:13.956Z,3.10
2018-05-02T16:02:04.984Z,2.87
2018-05-02T16:06:56.019Z,2.80
2018-05-02T16:11:47.130Z,3.07
2018-05-02T16:16:38.247Z,2.87
2018-05-02T16:21:29.280Z,3.10
2018-05-02T16:26:20.302Z,3.50
2018-05-02T16:31:11.512Z,3.30
2018-05-02T16:36:02.533Z,3.37
2018-05-02T16:40:53.633Z,2.90
2018-05-02T16:45:44.694Z,3.40
2018-05-02T16:50:35.733Z,3.07
2018-05-02T16:55:26.864Z,3.17
2018-05-02T17:00:18.586Z,3.10
2018-05-02T17:05:09.620Z,2.90
2018-05-02T17:10:00.637Z,3.23
2018-05-02T17:14:51.751Z,2.60
2018-05-02T17:19:42.805Z,3.07
2018-05-02T17:24:33.853Z,3.07
2018-05-02T17:29:24.899Z,2.90
2018-05-02T17:34:16.709Z,3.40
2018-05-02T17:39:07.748Z,4.00
2018-05-02T17:43:58.788Z,3.77
2018-05-02T17:48:50.596Z,3.63
2018-05-02T17:53:42.397Z,3.60
2018-05-02T17:58:33.449Z,3.70
2018-05-02T18:03:24.489Z,3.30
2018-05-02T18:08:15.505Z,3.70
2018-05-02T18:13:06.546Z,3.70
2018-05-02T18:17:58.372Z,3.83
2018-05-02T18:22:49.459Z,4.10
2018-05-02T18:27:40.457Z,3.47
2018-05-02T18:32:33.566Z,3.53
2018-05-02T18:37:25.961Z,4.00
2018-05-02T18:42:17.753Z,3.33
2018-05-02T18:47:08.836Z,5.63
2018-05-02T18:52:00.580Z,4.00
2018-05-02T18:56:52.385Z,3.80
2018-05-02T19:01:43.433Z,3.90
2018-05-02T19:06:35.286Z,4.50
2018-05-02T19:11:27.115Z,4.20
2018-05-02T19:16:18.935Z,3.87
2018-05-02T19:21:10.005Z,3.60
2018-05-02T19:26:07.320Z,4.00
2018-05-02T19:31:04.553Z,4.33
2018-05-02T19:35:55.605Z,4.57
2018-05-02T19:40:52.881Z,5.73
2018-05-02T19:45:43.913Z,4.33
2018-05-02T19:50:34.997Z,4.47
2018-05-02T19:55:26.060Z,4.60
2018-05-02T20:00:23.356Z,4.50
2018-05-02T20:05:15.165Z,4.30
2018-05-02T20:10:12.388Z,4.80
2018-05-02T20:15:03.436Z,4.53
2018-05-02T20:19:54.475Z,5.30
2018-05-02T20:24:45.523Z,4.83
2018-05-02T20:29:36.547Z,5.13
2018-05-02T20:34:27.587Z,4.50
2018-05-02T20:39:19.362Z,4.90
2018-05-02T20:44:10.409Z,4.37
2018-05-02T20:49:01.453Z,4.37
2018-05-02T20:53:52.535Z,5.47
2018-05-02T20:58:43.586Z,5.40
2018-05-02T21:03:34.633Z,5.13
2018-05-02T21:08:25.678Z,5.60
2018-05-02T21:13:17.529Z,6.90
2018-05-02T21:18:08.552Z,5.73
2018-05-02T21:23:00.349Z,5.40
2018-05-02T21:27:51.376Z,5.30
2018-05-02T21:32:42.496Z,5.40
2018-05-02T21:37:33.628Z,6.10
2018-05-02T21:42:24.652Z,5.60
2018-05-02T21:47:15.737Z,6.00
2018-05-02T21:52:06.774Z,6.00
2018-05-02T21:56:57.856Z,6.10
2018-05-02T22:01:49.633Z,6.10
2018-05-02T22:06:40.657Z,5.93
2018-05-02T22:11:31.703Z,6.60
2018-05-02T22:16:22.832Z,5.90
2018-05-02T22:21:13.877Z,5.77
2018-05-02T22:26:04.929Z,4.97
2018-05-02T22:30:55.990Z,5.40
2018-05-02T22:35:47.024Z,5.30
2018-05-02T22:40:38.050Z,5.70
2018-05-02T22:45:29.120Z,4.90
2018-05-02T22:50:20.192Z,4.97
2018-05-02T22:55:11.217Z,4.77
2018-05-02T23:00:02.371Z,5.00
2018-05-02T23:04:54.152Z,4.53
2018-05-02T23:09:45.170Z,4.93
2018-05-02T23:14:36.204Z,5.10
2018-05-02T23:19:27.285Z,5.33
2018-05-02T23:24:19.048Z,5.53
2018-05-02T23:29:10.083Z,5.07
2018-05-02T23:34:01.106Z,5.17
2018-05-02T23:38:52.148Z,5.77
2018-05-02T23:43:43.178Z,5.30
2018-05-02T23:48:34.225Z,5.30
2018-05-02T23:53:25.281Z,5.30
2018-05-02T23:58:17.071Z,5.40
